Time;durP1;ratioP1;P1;durP2;ratioP2;P2;SDS_P1;SDS_P2;PMS_P1;PMS_P2;Temp;Humidity;BMP_temperature;BMP_pressure;BME280_temperature;BME280_humidity;BME280_pressure;Samples;Min_cycle;Max_cycle;Signal;HPM_P1;HPM_P2
2023/03/03 00:00:57;;;;;;;59.47;22.33;;;;;;;0.47;100.00;102055.66;5086783;28;20387;-78
2023/03/03 00:03:25;;;;;;;64.40;23.02;;;;;;;0.29;100.00;102046.09;5081862;28;20051;-78
2023/03/03 00:05:51;;;;;;;71.30;24.00;;;;;;;0.28;100.00;102049.69;5111657;28;20388;-78
2023/03/03 00:08:18;;;;;;;62.97;23.20;;;;;;;0.34;100.00;102058.56;5086845;28;20394;-78
2023/03/03 00:10:44;;;;;;;66.00;24.38;;;;;;;0.32;100.00;102057.69;5095172;28;20032;-78
2023/03/03 00:13:22;;;;;;;63.92;23.88;;;;;;;0.32;100.00;102063.06;5112168;28;20043;-77
2023/03/03 00:15:48;;;;;;;59.47;20.98;;;;;;;0.38;100.00;102055.81;5111926;28;20118;-77
2023/03/03 00:18:27;;;;;;;62.30;22.20;;;;;;;0.51;100.00;102065.47;5108258;28;20119;-77
2023/03/03 00:20:59;;;;;;;74.18;25.25;;;;;;;0.42;100.00;102065.63;5108895;28;20078;-77
2023/03/03 00:23:39;;;;;;;62.20;23.45;;;;;;;0.53;100.00;102071.72;5109373;28;20059;-78
2023/03/03 00:26:32;;;;;;;62.65;23.52;;;;;;;0.48;100.00;102070.91;5091094;28;20039;-75
2023/03/03 00:28:58;;;;;;;;;;;;;;;0.52;100.00;102076.19;5093568;28;20115;-75
2023/03/03 00:31:33;;;;;;;53.28;19.75;;;;;;;0.55;100.00;102072.56;5094989;28;20365;-75
2023/03/03 00:34:24;;;;;;;44.35;19.10;;;;;;;0.65;100.00;102071.47;5090984;28;20032;-78
2023/03/03 00:36:53;;;;;;;59.67;20.55;;;;;;;0.57;100.00;102076.13;5109150;28;20028;-77
2023/03/03 00:39:30;;;;;;;76.97;24.85;;;;;;;0.51;100.00;102073.56;5061870;28;20041;-77
2023/03/03 00:41:57;;;;;;;69.43;24.95;;;;;;;0.60;100.00;102081.47;5094866;28;20377;-77
2023/03/03 00:44:57;;;;;;;67.95;22.00;;;;;;;0.53;100.00;102082.50;5087738;28;20036;-78
2023/03/03 00:47:30;;;;;;;72.05;23.73;;;;;;;0.54;100.00;102089.66;5095107;28;20059;-78
2023/03/03 00:50:28;;;;;;;74.20;23.15;;;;;;;0.61;100.00;102087.72;5078983;28;20027;-78
2023/03/03 00:53:10;;;;;;;71.43;25.23;;;;;;;0.60;100.00;102086.84;5103533;28;20525;-78
2023/03/03 00:55:36;;;;;;;79.17;25.77;;;;;;;0.59;100.00;102076.09;5081332;28;20048;-78
2023/03/03 00:58:03;;;;;;;73.30;25.65;;;;;;;0.54;100.00;102077.09;5093224;28;20284;-77
2023/03/03 01:00:29;;;;;;;75.53;25.40;;;;;;;0.55;100.00;102089.63;5086285;28;20111;-78
2023/03/03 01:02:54;;;;;;;73.18;24.10;;;;;;;0.55;100.00;102086.94;5079245;28;20120;-78
2023/03/03 01:05:21;;;;;;;76.88;24.40;;;;;;;0.58;100.00;102095.91;5049064;28;20090;-78
2023/03/03 01:07:46;;;;;;;71.50;25.25;;;;;;;0.51;100.00;102104.06;5054785;28;20032;-78
2023/03/03 01:10:12;;;;;;;70.18;24.52;;;;;;;0.65;100.00;102102.94;5092835;28;20028;-75
2023/03/03 01:12:38;;;;;;;76.88;24.90;;;;;;;0.53;100.00;102090.59;5074437;28;20089;-75
2023/03/03 01:15:09;;;;;;;77.43;23.48;;;;;;;0.48;100.00;102104.13;5083661;28;20144;-75
2023/03/03 01:17:35;;;;;;;80.93;25.60;;;;;;;0.55;100.00;102097.69;5091506;28;20102;-77
2023/03/03 01:20:02;;;;;;;63.58;23.05;;;;;;;0.54;100.00;102104.03;5052041;28;20762;-76
2023/03/03 01:22:29;;;;;;;69.35;21.40;;;;;;;0.35;100.00;102107.94;5055435;28;20036;-77
2023/03/03 01:24:54;;;;;;;69.15;23.02;;;;;;;0.33;100.00;102112.47;5093953;28;20040;-76
2023/03/03 01:27:20;;;;;;;64.32;20.38;;;;;;;0.28;100.00;102112.53;5075298;28;20088;-77
2023/03/03 01:29:45;;;;;;;59.25;19.30;;;;;;;0.17;100.00;102109.13;5023066;28;20032;-77
2023/03/03 01:32:10;;;;;;;49.85;18.13;;;;;;;0.12;100.00;102117.28;5052727;28;20102;-77
2023/03/03 01:34:36;;;;;;;53.90;18.50;;;;;;;0.21;100.00;102105.47;5055383;28;20082;-76
2023/03/03 01:37:01;;;;;;;69.38;22.50;;;;;;;0.26;100.00;102103.56;5094975;28;20421;-76
2023/03/03 01:39:27;;;;;;;62.53;20.92;;;;;;;0.24;100.00;102104.53;5060345;28;20028;-76
2023/03/03 01:41:52;;;;;;;73.40;22.98;;;;;;;0.24;100.00;102101.84;5054546;28;20091;-76
2023/03/03 01:44:18;;;;;;;68.28;22.27;;;;;;;0.22;100.00;102106.38;5036066;28;20037;-76
2023/03/03 01:47:11;;;;;;;53.13;16.52;;;;;;;0.21;100.00;102115.34;5093036;28;20158;-76
2023/03/03 01:50:00;;;;;;;;;;;;;;;0.22;100.00;102114.44;5077294;28;20031;-76
2023/03/03 01:52:32;;;;;;;46.03;15.55;;;;;;;0.09;100.00;102109.22;5028805;28;20391;-76
2023/03/03 01:55:08;;;;;;;58.10;19.40;;;;;;;0.13;100.00;102112.75;5070430;28;20024;-77
2023/03/03 01:57:39;;;;;;;59.25;20.00;;;;;;;0.14;100.00;102090.31;5076712;28;20028;-76
2023/03/03 02:00:06;;;;;;;62.22;18.63;;;;;;;0.21;100.00;102108.16;5061352;28;20131;-76
2023/03/03 02:02:33;;;;;;;71.07;20.75;;;;;;;0.25;100.00;102101.81;5077410;28;20039;-77
2023/03/03 02:04:59;;;;;;;62.05;20.20;;;;;;;0.35;100.00;102102.56;5061743;28;20404;-77
2023/03/03 02:07:28;;;;;;;56.03;20.13;;;;;;;0.32;100.00;102105.28;5082125;28;20044;-76
2023/03/03 02:10:09;;;;;;;58.50;18.05;;;;;;;0.49;100.00;102099.63;5077226;28;20110;-77
2023/03/03 02:12:40;;;;;;;64.43;21.85;;;;;;;0.42;100.00;102104.22;5094012;28;20028;-77
2023/03/03 02:15:22;;;;;;;63.40;20.02;;;;;;;0.26;100.00;102100.00;5079205;28;20028;-77
2023/03/03 02:18:10;;;;;;;62.30;21.27;;;;;;;0.36;100.00;102102.53;5080060;28;20024;-77
2023/03/03 02:20:41;;;;;;;69.65;21.70;;;;;;;0.12;100.00;102098.41;5082522;28;20487;-77
2023/03/03 02:23:25;;;;;;;59.00;18.85;;;;;;;0.26;100.00;102098.19;5072715;28;20044;-77
2023/03/03 02:25:56;;;;;;;55.47;20.35;;;;;;;0.11;100.00;102101.13;5071785;28;20036;-76
2023/03/03 02:28:25;;;;;;;53.92;19.60;;;;;;;0.19;100.00;102107.28;5077361;28;20032;-77
2023/03/03 02:30:54;;;;;;;65.55;19.20;;;;;;;0.14;100.00;102106.47;5095415;28;20054;-77
2023/03/03 02:33:20;;;;;;;63.90;21.17;;;;;;;0.13;100.00;102108.28;5075173;28;20032;-77
2023/03/03 02:35:45;;;;;;;64.55;21.08;;;;;;;0.14;100.00;102096.59;5086862;28;20040;-77
2023/03/03 02:38:34;;;;;;;51.60;16.95;;;;;;;0.25;100.00;102096.44;5060423;28;20122;-77
2023/03/03 02:41:08;;;;;;;59.05;19.20;;;;;;;0.22;100.00;102107.25;5094849;28;20028;-77
2023/03/03 02:43:52;;;;;;;65.00;22.45;;;;;;;0.32;100.00;102116.06;5074183;28;20367;-76
2023/03/03 02:46:18;;;;;;;57.22;20.67;;;;;;;0.21;100.00;102113.53;5058545;28;20028;-76
2023/03/03 02:48:43;;;;;;;58.85;21.08;;;;;;;0.08;100.00;102114.63;5075074;28;20046;-77
2023/03/03 02:51:09;;;;;;;65.93;21.02;;;;;;;0.10;100.00;102110.13;5060257;28;20032;-77
2023/03/03 02:53:35;;;;;;;55.05;19.17;;;;;;;0.14;100.00;102106.47;5059808;28;20028;-77
2023/03/03 02:56:00;;;;;;;63.55;18.23;;;;;;;0.21;100.00;102105.47;5069192;28;20048;-77
2023/03/03 02:58:26;;;;;;;64.78;19.23;;;;;;;0.22;100.00;102100.97;5046063;28;20032;-76
2023/03/03 03:00:51;;;;;;;59.58;20.52;;;;;;;0.17;100.00;102101.06;5053954;28;20028;-76
2023/03/03 03:03:17;;;;;;;60.15;19.88;;;;;;;0.19;100.00;102104.59;5058242;28;20039;-76
2023/03/03 03:05:42;;;;;;;57.75;20.02;;;;;;;0.24;100.00;102104.53;5055055;28;20441;-77
2023/03/03 03:08:08;;;;;;;58.78;17.77;;;;;;;0.15;100.00;102110.97;5092421;28;20035;-77
2023/03/03 03:10:34;;;;;;;63.47;21.58;;;;;;;0.22;100.00;102112.63;5075570;28;20044;-77
2023/03/03 03:12:59;;;;;;;62.35;20.30;;;;;;;0.06;100.00;102090.44;5056343;28;20032;-77
2023/03/03 03:15:25;;;;;;;48.78;17.85;;;;;;;0.21;100.00;102110.84;5062215;28;20177;-77
2023/03/03 03:17:50;;;;;;;48.85;18.45;;;;;;;0.20;100.00;102119.84;5076056;28;20066;-77
2023/03/03 03:20:17;;;;;;;60.53;17.73;;;;;;;0.22;100.00;102120.72;5072014;28;20077;-77
2023/03/03 03:22:42;;;;;;;54.78;20.13;;;;;;;0.12;100.00;102122.66;5075235;28;20028;-77
2023/03/03 03:25:08;;;;;;;58.78;20.30;;;;;;;0.26;100.00;102114.34;5058970;28;20037;-77
2023/03/03 03:27:33;;;;;;;43.88;15.57;;;;;;;0.29;100.00;102122.38;5052600;28;20509;-77
2023/03/03 03:29:59;;;;;;;54.08;18.58;;;;;;;0.23;100.00;102129.66;5062469;28;20032;-77
2023/03/03 03:32:24;;;;;;;59.15;20.05;;;;;;;0.26;100.00;102129.63;5066334;28;20046;-76
2023/03/03 03:34:49;;;;;;;56.50;20.02;;;;;;;0.25;100.00;102123.38;5056077;28;20418;-77
2023/03/03 03:37:15;;;;;;;50.35;18.20;;;;;;;0.26;100.00;102129.63;5056803;28;20190;-77
2023/03/03 03:39:41;;;;;;;53.72;18.05;;;;;;;0.40;100.00;102133.00;5045131;28;20036;-77
2023/03/03 03:42:06;;;;;;;63.60;20.67;;;;;;;0.35;100.00;102126.81;5074681;28;20040;-77
2023/03/03 03:44:31;;;;;;;60.53;20.38;;;;;;;0.28;100.00;102141.25;5067347;28;20086;-76
2023/03/03 03:46:57;;;;;;;54.60;19.77;;;;;;;0.20;100.00;102124.31;5075527;28;20123;-77
2023/03/03 03:49:22;;;;;;;54.63;22.00;;;;;;;0.17;100.00;102131.56;5039938;28;20209;-77
2023/03/03 03:51:48;;;;;;;58.00;21.38;;;;;;;0.24;100.00;102136.84;5058980;28;20032;-77
2023/03/03 03:54:13;;;;;;;63.72;20.25;;;;;;;0.20;100.00;102121.63;5075455;28;20047;-76
2023/03/03 03:56:39;;;;;;;56.40;20.73;;;;;;;0.40;100.00;102127.63;5084115;28;20527;-76
2023/03/03 03:59:05;;;;;;;61.08;22.10;;;;;;;0.47;100.00;102129.28;5088703;28;20039;-77
2023/03/03 04:01:31;;;;;;;57.20;21.38;;;;;;;0.42;100.00;102132.97;5091190;28;20032;-77
2023/03/03 04:03:56;;;;;;;65.75;22.08;;;;;;;0.47;100.00;102134.66;5078317;28;20087;-76
2023/03/03 04:06:22;;;;;;;49.63;19.88;;;;;;;0.55;100.00;102130.03;5039018;28;20040;-77
2023/03/03 04:08:47;;;;;;;55.55;21.65;;;;;;;0.40;100.00;102124.91;5074746;28;20113;-77
2023/03/03 04:11:13;;;;;;;57.75;22.30;;;;;;;0.40;100.00;102133.00;5084717;28;20059;-77
2023/03/03 04:13:38;;;;;;;56.40;20.98;;;;;;;0.40;100.00;102110.56;5054991;28;20029;-77
2023/03/03 04:16:04;;;;;;;58.65;21.42;;;;;;;0.35;100.00;102116.91;5080188;28;20032;-77
2023/03/03 04:18:29;;;;;;;62.88;22.40;;;;;;;0.42;100.00;102139.25;5083492;28;20051;-77
2023/03/03 04:20:54;;;;;;;58.92;22.45;;;;;;;0.42;100.00;102133.84;5066523;28;20036;-76
2023/03/03 04:23:20;;;;;;;56.00;21.38;;;;;;;0.46;100.00;102142.78;5070936;28;20062;-77
2023/03/03 04:25:47;;;;;;;52.88;21.17;;;;;;;0.51;100.00;102130.16;5089885;28;20044;-77
2023/03/03 04:28:13;;;;;;;55.58;22.60;;;;;;;0.44;100.00;102136.53;5091215;28;20047;-77
2023/03/03 04:30:39;;;;;;;53.03;21.40;;;;;;;0.43;100.00;102143.72;5090936;28;20040;-76
2023/03/03 04:33:04;;;;;;;59.03;22.90;;;;;;;0.42;100.00;102138.38;5092571;28;20031;-77
2023/03/03 04:35:29;;;;;;;52.35;19.75;;;;;;;0.49;100.00;102130.16;5055942;28;20531;-77
2023/03/03 04:37:55;;;;;;;59.53;22.60;;;;;;;0.66;100.00;102143.34;5069073;28;20044;-77
2023/03/03 04:40:20;;;;;;;63.88;21.92;;;;;;;0.43;100.00;102135.66;5074987;28;20078;-77
2023/03/03 04:42:46;;;;;;;53.17;20.90;;;;;;;0.62;100.00;102138.03;5044413;28;20032;-77
2023/03/03 04:45:12;;;;;;;49.42;19.92;;;;;;;0.59;100.00;102132.69;5071778;28;20029;-78
2023/03/03 04:47:37;;;;;;;55.85;22.67;;;;;;;0.45;100.00;102130.25;5077822;28;20136;-77
2023/03/03 04:50:03;;;;;;;56.33;21.92;;;;;;;0.47;100.00;102133.78;5071263;28;20047;-77
2023/03/03 04:52:28;;;;;;;58.03;20.98;;;;;;;0.55;100.00;102134.56;5085753;28;20433;-77
2023/03/03 04:54:54;;;;;;;58.72;20.58;;;;;;;0.57;100.00;102135.41;5096329;28;20111;-77
2023/03/03 04:57:19;;;;;;;53.30;20.15;;;;;;;0.50;100.00;102136.44;5079402;28;20131;-77
2023/03/03 04:59:45;;;;;;;59.45;22.42;;;;;;;0.38;100.00;102140.22;5058909;28;20440;-77
2023/03/03 05:02:11;;;;;;;60.40;22.02;;;;;;;0.44;100.00;102136.53;5055929;28;20056;-77
2023/03/03 05:04:37;;;;;;;62.45;20.77;;;;;;;0.59;100.00;102141.69;5027389;28;20028;-77
2023/03/03 05:07:03;;;;;;;63.20;21.92;;;;;;;0.62;100.00;102144.28;5097114;28;20031;-78
2023/03/03 05:09:29;;;;;;;48.70;17.40;;;;;;;0.62;100.00;102143.41;5083567;28;20059;-77
2023/03/03 05:11:54;;;;;;;55.97;19.77;;;;;;;0.50;100.00;102139.13;5088680;28;20487;-77
2023/03/03 05:14:20;;;;;;;53.63;19.85;;;;;;;0.46;100.00;102138.28;5057258;28;20086;-76
2023/03/03 05:16:45;;;;;;;62.78;21.17;;;;;;;0.44;100.00;102133.84;5057286;28;20089;-77
2023/03/03 05:19:11;;;;;;;59.88;22.42;;;;;;;0.56;100.00;102144.44;5052119;28;20036;-77
2023/03/03 05:21:41;;;;;;;61.50;21.23;;;;;;;0.57;100.00;102148.00;5094400;28;20024;-76
2023/03/03 05:24:07;;;;;;;59.20;21.67;;;;;;;0.44;100.00;102148.19;5083277;28;20044;-77
2023/03/03 05:26:32;;;;;;;51.63;17.05;;;;;;;0.54;100.00;102146.22;5049437;28;20047;-77
2023/03/03 05:28:58;;;;;;;65.97;21.23;;;;;;;0.53;100.00;102156.13;5070169;28;20054;-77
2023/03/03 05:31:25;;;;;;;63.60;22.15;;;;;;;0.58;100.00;102155.19;5077049;28;20032;-76
2023/03/03 05:33:51;;;;;;;57.97;21.42;;;;;;;0.58;100.00;102149.78;5084167;28;20029;-77
2023/03/03 05:36:17;;;;;;;61.65;21.77;;;;;;;0.53;100.00;102148.03;5072179;28;20406;-76
2023/03/03 05:38:42;;;;;;;58.47;20.55;;;;;;;0.56;100.00;102160.59;5038297;28;20040;-77
2023/03/03 05:41:08;;;;;;;67.75;19.90;;;;;;;0.70;100.00;102154.97;5045382;28;20048;-76
2023/03/03 05:43:34;;;;;;;63.50;18.13;;;;;;;0.80;100.00;102156.56;5055979;28;20040;-77
2023/03/03 05:45:59;;;;;;;64.95;22.05;;;;;;;0.58;100.00;102155.19;5045320;28;20120;-76
2023/03/03 05:48:25;;;;;;;61.78;22.42;;;;;;;0.62;100.00;102149.69;5066559;28;20090;-76
2023/03/03 05:50:51;;;;;;;61.50;22.35;;;;;;;0.77;100.00;102162.03;5066980;28;20529;-76
2023/03/03 05:53:16;;;;;;;61.13;22.13;;;;;;;0.65;100.00;102160.41;5083879;28;20056;-77
2023/03/03 05:55:42;;;;;;;63.60;22.05;;;;;;;0.57;100.00;102172.25;5044923;28;20139;-76
2023/03/03 05:58:08;;;;;;;57.65;20.33;;;;;;;0.59;100.00;102155.16;5053363;28;20122;-76
2023/03/03 06:00:33;;;;;;;65.25;21.58;;;;;;;0.52;100.00;102159.72;5093024;28;20040;-76
2023/03/03 06:03:00;;;;;;;52.38;19.67;;;;;;;0.50;100.00;102166.06;5062165;28;20103;-76
2023/03/03 06:05:25;;;;;;;52.65;19.63;;;;;;;0.60;100.00;102169.50;5081723;28;20085;-76
2023/03/03 06:07:51;;;;;;;52.80;20.27;;;;;;;0.53;100.00;102160.63;5082531;28;20036;-76
2023/03/03 06:10:16;;;;;;;61.95;21.25;;;;;;;0.62;100.00;102176.63;5060031;28;20040;-76
2023/03/03 06:12:42;;;;;;;53.42;20.02;;;;;;;0.63;100.00;102164.94;5060283;28;20059;-77
2023/03/03 06:15:09;;;;;;;55.55;19.55;;;;;;;0.73;100.00;102160.31;5092522;28;20024;-77
2023/03/03 06:17:34;;;;;;;56.10;20.48;;;;;;;0.70;100.00;102177.41;5051751;28;20459;-77
2023/03/03 06:20:00;;;;;;;59.20;20.08;;;;;;;0.77;100.00;102172.81;5064697;28;20059;-76
2023/03/03 06:22:26;;;;;;;53.65;19.33;;;;;;;0.79;100.00;102171.00;5045424;28;20064;-77
2023/03/03 06:24:51;;;;;;;63.88;21.10;;;;;;;0.75;100.00;102177.31;5055665;28;20038;-77
2023/03/03 06:27:17;;;;;;;61.40;21.13;;;;;;;0.71;100.00;102175.63;5064589;28;20364;-78
2023/03/03 06:29:43;;;;;;;55.13;20.60;;;;;;;0.72;100.00;102180.97;5076737;28;20064;-77
2023/03/03 06:32:09;;;;;;;59.08;19.98;;;;;;;0.77;100.00;102180.91;5072271;28;20040;-77
2023/03/03 06:34:34;;;;;;;69.00;21.80;;;;;;;0.76;100.00;102195.28;5063588;28;20043;-77
2023/03/03 06:37:00;;;;;;;61.88;20.35;;;;;;;0.73;100.00;102187.25;5082735;28;20036;-77
2023/03/03 06:39:25;;;;;;;67.15;22.15;;;;;;;0.82;100.00;102203.28;5060967;28;20032;-77
2023/03/03 06:41:50;;;;;;;57.65;20.52;;;;;;;0.77;100.00;102205.19;5063814;28;20036;-78
2023/03/03 06:44:16;;;;;;;56.55;21.27;;;;;;;0.79;100.00;102197.03;5042953;28;20044;-77
2023/03/03 06:46:41;;;;;;;66.30;21.13;;;;;;;1.02;100.00;102200.25;5073743;28;20036;-77
2023/03/03 06:49:07;;;;;;;58.42;21.27;;;;;;;0.83;100.00;102186.19;5071748;28;20137;-77
2023/03/03 06:51:38;;;;;;;54.95;20.98;;;;;;;0.85;100.00;102218.50;5091305;28;20035;-77
2023/03/03 06:54:33;;;;;;;50.50;17.55;;;;;;;1.05;100.00;102219.06;5071809;28;20043;-77
2023/03/03 06:57:06;;;;;;;40.08;15.55;;;;;;;1.10;100.00;102219.88;5055768;28;20284;-77
2023/03/03 06:59:32;;;;;;;49.53;17.75;;;;;;;1.03;100.00;102229.00;5075533;28;20107;-77
2023/03/03 07:01:57;;;;;;;50.30;17.42;;;;;;;0.98;100.00;102228.16;5048803;28;20132;-77
2023/03/03 07:04:32;;;;;;;48.00;16.40;;;;;;;0.99;100.00;102232.66;5054152;28;20178;-78
2023/03/03 07:07:21;;;;;;;43.28;16.30;;;;;;;0.91;100.00;102224.69;5101106;28;20032;-77
2023/03/03 07:09:49;;;;;;;44.70;16.20;;;;;;;1.01;100.00;102235.31;5094857;28;20047;-77
2023/03/03 07:12:21;;;;;;;41.80;15.63;;;;;;;0.95;100.00;102217.41;5097580;28;20074;-77
2023/03/03 07:15:01;;;;;;;45.53;15.20;;;;;;;0.98;100.00;102222.78;5048982;28;20032;-77
2023/03/03 07:17:26;;;;;;;40.45;13.95;;;;;;;0.87;100.00;102211.28;5077021;28;20421;-76
2023/03/03 07:19:52;;;;;;;43.78;14.90;;;;;;;1.10;100.00;102233.38;5076411;28;20051;-76
2023/03/03 07:22:20;;;;;;;41.92;15.52;;;;;;;1.10;100.00;102232.47;5083254;28;20055;-76
2023/03/03 07:25:03;;;;;;;43.35;14.75;;;;;;;1.06;100.00;102231.63;5085684;28;20036;-77
2023/03/03 07:27:30;;;;;;;39.47;14.93;;;;;;;1.10;100.00;102241.44;5108437;28;20034;-78
2023/03/03 07:30:26;;;;;;;43.83;16.15;;;;;;;1.19;100.00;102240.38;5092095;28;20047;-78
2023/03/03 07:32:56;;;;;;;46.47;16.33;;;;;;;1.24;100.00;102240.31;5073849;28;20099;-78
2023/03/03 07:35:37;;;;;;;41.60;14.98;;;;;;;1.19;100.00;102236.81;5101854;28;20522;-78
2023/03/03 07:38:26;;;;;;;38.72;13.90;;;;;;;1.15;100.00;102251.25;5085382;28;20047;-77
2023/03/03 07:40:54;;;;;;;37.95;14.18;;;;;;;1.14;100.00;102244.09;5105858;28;20032;-78
2023/03/03 07:43:31;;;;;;;42.30;15.82;;;;;;;1.27;100.00;102251.94;5090628;28;20024;-78
2023/03/03 07:46:14;;;;;;;41.30;13.98;;;;;;;1.36;100.00;102250.00;5088322;28;20032;-78
2023/03/03 07:48:41;;;;;;;45.72;14.90;;;;;;;1.41;100.00;102256.19;5101685;28;20036;-78
2023/03/03 07:51:28;;;;;;;44.92;16.48;;;;;;;1.45;100.00;102252.53;5083543;28;20084;-78
2023/03/03 07:54:11;;;;;;;44.58;16.13;;;;;;;1.47;100.00;102245.28;5099706;28;20475;-78
2023/03/03 07:56:36;;;;;;;48.53;16.07;;;;;;;1.51;100.00;102267.72;5092620;28;20064;-78
2023/03/03 07:59:19;;;;;;;46.08;16.05;;;;;;;1.67;100.00;102262.91;5077282;28;20035;-77
2023/03/03 08:01:48;;;;;;;41.78;16.30;;;;;;;1.57;100.00;102271.19;5074294;28;20024;-77
2023/03/03 08:04:31;;;;;;;47.88;16.23;;;;;;;1.68;100.00;102273.69;5057291;28;20029;-77
2023/03/03 08:07:01;;;;;;;38.55;14.98;;;;;;;1.65;100.00;102261.13;5088263;28;20028;-77
2023/03/03 08:09:33;;;;;;;43.20;14.50;;;;;;;1.67;100.00;102276.41;5085008;28;20042;-77
2023/03/03 08:12:38;;;;;;;41.22;15.63;;;;;;;1.70;100.00;102276.38;5116252;28;20036;-77
2023/03/03 08:15:31;;;;;;;45.47;16.05;;;;;;;1.66;100.00;102280.94;5012066;28;20039;-77
2023/03/03 08:18:00;;;;;;;42.30;16.02;;;;;;;1.71;100.00;102275.47;4997731;28;20123;-77
2023/03/03 08:20:43;;;;;;;47.28;16.65;;;;;;;1.87;100.00;102287.72;5083458;28;20047;-77
2023/03/03 08:23:10;;;;;;;43.97;16.35;;;;;;;1.77;100.00;102286.09;5073140;28;20132;-77
2023/03/03 08:25:35;;;;;;;46.47;15.13;;;;;;;1.80;100.00;102283.34;5089383;28;20044;-77
2023/03/03 08:28:04;;;;;;;43.90;15.77;;;;;;;1.83;100.00;102286.00;5064561;28;20364;-78
2023/03/03 08:30:30;;;;;;;49.78;16.35;;;;;;;1.82;100.00;102287.81;5064265;28;20040;-79
2023/03/03 08:32:56;;;;;;;48.72;17.05;;;;;;;2.06;100.00;102287.34;5110173;28;20092;-78
2023/03/03 08:35:22;;;;;;;51.92;15.48;;;;;;;2.01;100.00;102288.31;5110759;28;20056;-77
2023/03/03 08:37:47;;;;;;;41.83;16.05;;;;;;;1.99;100.00;102292.00;5061273;28;20044;-77
2023/03/03 08:40:13;;;;;;;48.25;17.67;;;;;;;2.13;100.00;102298.00;5070145;28;20085;-78
2023/03/03 08:42:38;;;;;;;44.70;17.42;;;;;;;2.01;100.00;102299.13;5100295;28;20047;-77
2023/03/03 08:45:04;;;;;;;45.33;16.05;;;;;;;1.96;100.00;102298.34;5081107;28;20036;-77
2023/03/03 08:47:29;;;;;;;50.10;17.67;;;;;;;2.04;100.00;102306.28;5098108;28;20039;-77
2023/03/03 08:49:55;;;;;;;53.90;17.40;;;;;;;2.10;100.00;102308.88;5079776;28;20043;-77
2023/03/03 08:52:20;;;;;;;50.03;16.45;;;;;;;2.23;100.00;102303.22;5061654;28;20422;-77
2023/03/03 08:54:46;;;;;;;44.95;16.17;;;;;;;2.21;100.00;102305.94;5118237;28;20457;-77
2023/03/03 08:57:11;;;;;;;51.17;16.83;;;;;;;2.38;100.00;102322.69;5079710;28;20052;-76
2023/03/03 08:59:37;;;;;;;48.20;17.92;;;;;;;2.30;100.00;102311.16;5083137;28;20031;-76
2023/03/03 09:02:07;;;;;;;56.25;20.58;;;;;;;2.36;100.00;102316.44;5100437;28;20055;-76
2023/03/03 09:04:33;;;;;;;50.55;18.63;;;;;;;2.32;100.00;102319.25;5096245;28;20020;-75
2023/03/03 09:06:58;;;;;;;46.90;17.13;;;;;;;2.46;100.00;102318.94;5068377;28;20035;-77
2023/03/03 09:09:27;;;;;;;48.63;18.85;;;;;;;2.46;100.00;102316.22;5116767;28;20085;-76
2023/03/03 09:11:58;;;;;;;43.60;17.33;;;;;;;2.45;100.00;102319.88;5066129;28;20027;-76
2023/03/03 09:14:27;;;;;;;42.97;16.15;;;;;;;2.49;100.00;102322.50;5082756;28;20024;-74
2023/03/03 09:16:55;;;;;;;43.83;17.08;;;;;;;2.54;100.00;102322.34;5077039;28;20036;-75
2023/03/03 09:19:32;;;;;;;48.15;17.48;;;;;;;2.36;100.00;102315.53;5079536;28;20390;-78
2023/03/03 09:22:19;;;;;;;43.47;17.05;;;;;;;2.64;100.00;102314.94;5109427;28;20057;-79
2023/03/03 09:24:47;;;;;;;42.47;16.08;;;;;;;2.70;100.00;102325.63;5117158;28;20036;-78
2023/03/03 09:27:28;;;;;;;39.83;14.68;;;;;;;2.69;100.00;102330.16;5098354;28;20053;-78
2023/03/03 09:29:54;;;;;;;41.10;14.50;;;;;;;2.90;100.00;102327.88;5088487;28;20032;-76
2023/03/03 09:32:41;;;;;;;42.58;15.50;;;;;;;2.85;100.00;102322.56;5078606;28;20119;-76
2023/03/03 09:35:36;;;;;;;44.55;16.65;;;;;;;2.97;100.00;102320.50;5083917;28;20055;-76
2023/03/03 09:38:25;;;;;;;39.78;15.98;;;;;;;3.01;100.00;102319.50;5099503;28;20039;-76
2023/03/03 09:41:02;;;;;;;33.67;14.27;;;;;;;3.07;100.00;102328.38;5117520;28;20039;-76
2023/03/03 09:43:51;;;;;;;43.03;15.88;;;;;;;3.18;100.00;102330.81;5117010;28;20474;-77
2023/03/03 09:46:19;;;;;;;39.92;15.48;;;;;;;3.21;100.00;102332.56;5077527;28;20028;-76
2023/03/03 09:49:18;;;;;;;40.33;14.88;;;;;;;3.06;100.00;102329.28;5096303;28;20055;-77
2023/03/03 09:52:20;;;;;;;43.03;16.00;;;;;;;3.19;100.00;102337.13;5078276;28;20070;-77
2023/03/03 09:55:09;;;;;;;37.92;14.30;;;;;;;3.46;100.00;102339.16;5078392;28;20122;-77
2023/03/03 09:57:46;;;;;;;36.90;14.55;;;;;;;3.38;100.00;102338.44;5076551;28;20061;-76
2023/03/03 10:00:54;;;;;;;30.42;12.20;;;;;;;3.37;100.00;102339.38;5076811;28;20039;-77
2023/03/03 10:03:49;;;;;;;40.92;15.65;;;;;;;3.45;100.00;102347.31;5084028;28;20526;-77
2023/03/03 10:06:21;;;;;;;36.95;13.02;;;;;;;3.57;100.00;102344.25;5061755;28;20031;-77
2023/03/03 10:09:18;;;;;;;32.90;13.45;;;;;;;3.44;100.00;102337.38;5096705;28;20066;-77
2023/03/03 10:12:02;;;;;;;33.75;13.95;;;;;;;3.72;100.00;102353.81;5062705;28;20040;-77
2023/03/03 10:15:08;;;;;;;31.67;12.07;;;;;;;3.72;100.00;102345.69;5096447;28;20028;-77
2023/03/03 10:17:51;;;;;;;35.25;14.13;;;;;;;3.73;100.00;102336.63;5053363;28;20082;-77
2023/03/03 10:20:22;;;;;;;;;;;;;;;3.67;100.00;102350.34;5077647;28;20031;-77
2023/03/03 10:23:04;;;;;;;30.88;13.45;;;;;;;3.92;100.00;102347.88;5052523;28;19912;-77
2023/03/03 10:25:41;;;;;;;31.80;13.73;;;;;;;3.88;100.00;102346.16;5075272;28;20047;-77
2023/03/03 10:28:29;;;;;;;34.60;13.13;;;;;;;4.15;100.00;102346.31;5087056;28;20036;-77
2023/03/03 10:31:18;;;;;;;32.78;13.18;;;;;;;4.15;100.00;102344.53;5092292;28;20048;-77
2023/03/03 10:33:56;;;;;;;38.70;14.70;;;;;;;4.27;100.00;102353.25;5095043;28;20032;-77
2023/03/03 10:36:33;;;;;;;32.72;14.07;;;;;;;4.37;100.00;102347.50;5076666;28;20075;-77
2023/03/03 10:39:36;;;;;;;34.78;14.15;;;;;;;4.18;100.00;102348.97;5059452;28;20062;-77
2023/03/03 10:42:11;;;;;;;32.20;14.02;;;;;;;4.29;100.00;102357.69;5076814;28;20027;-77
2023/03/03 10:44:42;;;;;;;28.67;12.68;;;;;;;4.16;100.00;102351.72;5094238;28;20032;-77
2023/03/03 10:47:47;;;;;;;28.65;12.63;;;;;;;4.12;100.00;102344.63;5077083;28;20032;-76
2023/03/03 10:50:26;;;;;;;31.35;12.52;;;;;;;4.57;100.00;102349.63;5077220;28;20032;-77
2023/03/03 10:53:07;;;;;;;29.75;12.73;;;;;;;4.53;100.00;102344.34;5076394;28;20036;-77
2023/03/03 10:55:51;;;;;;;29.77;12.43;;;;;;;4.66;100.00;102348.47;5063973;28;20032;-77
2023/03/03 10:58:55;;;;;;;30.55;12.85;;;;;;;4.45;100.00;102344.56;5112667;28;20040;-77
2023/03/03 11:01:49;;;;;;;29.88;13.48;;;;;;;4.33;100.00;102348.53;5043862;28;20131;-77
2023/03/03 11:04:58;;;;;;;33.50;13.93;;;;;;;4.50;100.00;102341.72;5071815;28;20044;-77
2023/03/03 11:07:40;;;;;;;32.97;13.15;;;;;;;4.81;100.00;102347.13;5112615;28;20065;-77
2023/03/03 11:10:30;;;;;;;30.60;13.20;;;;;;;4.60;100.00;102344.09;5081059;28;20051;-77
2023/03/03 11:13:10;;;;;;;28.95;12.57;;;;;;;4.93;100.00;102344.00;5056436;28;20040;-77
2023/03/03 11:15:40;;;;;;;29.05;12.32;;;;;;;4.76;100.00;102336.41;5074107;28;20032;-77
2023/03/03 11:18:12;;;;;;;27.67;12.77;;;;;;;4.77;100.00;102342.69;5073785;28;20029;-77
2023/03/03 11:20:58;;;;;;;30.33;13.82;;;;;;;4.85;100.00;102335.22;5096132;28;20095;-76
2023/03/03 11:23:48;;;;;;;29.95;12.48;;;;;;;5.32;100.00;102338.22;5093720;28;20556;-77
2023/03/03 11:26:44;;;;;;;27.23;12.00;;;;;;;5.41;100.00;102337.06;5093887;28;20559;-77
2023/03/03 11:29:38;;;;;;;36.75;12.48;;;;;;;5.28;100.00;102331.13;5078950;28;20078;-77
2023/03/03 11:32:29;;;;;;;25.85;12.10;;;;;;;5.50;100.00;102323.13;5088047;28;20127;-77